Time;durP1;ratioP1;P1;durP2;ratioP2;P2;SDS_P1;SDS_P2;PMS_P1;PMS_P2;Temp;Humidity;BMP_temperature;BMP_pressure;BME280_temperature;BME280_humidity;BME280_pressure;Samples;Min_cycle;Max_cycle;Signal;HPM_P1;HPM_P2
2023/04/30 00:02:06;;;;;;;17.73;8.85;;;10.00;99.90;;;10.02;100.00;101586.00;5145939;28;20078;-71
2023/04/30 00:04:38;;;;;;;16.00;9.43;;;10.00;99.90;;;9.99;100.00;101588.47;5159532;28;20046;-74
2023/04/30 00:07:10;;;;;;;15.05;8.52;;;10.00;99.90;;;9.97;100.00;101590.09;5142340;28;20047;-72
2023/04/30 00:09:43;;;;;;;16.85;8.50;;;10.00;99.90;;;9.95;100.00;101589.13;5150423;28;20419;-72
2023/04/30 00:12:15;;;;;;;16.55;8.35;;;9.90;99.90;;;9.94;100.00;101589.94;5155577;28;20049;-72
2023/04/30 00:14:49;;;;;;;16.20;8.55;;;9.90;99.90;;;9.93;100.00;101590.78;5158590;28;20046;-72
2023/04/30 00:17:21;;;;;;;15.48;8.52;;;9.90;99.90;;;9.93;100.00;101587.28;5156518;28;20050;-73
2023/04/30 00:19:53;;;;;;;16.38;9.40;;;9.90;99.90;;;9.93;100.00;101587.28;5160885;28;20050;-72
2023/04/30 00:22:25;;;;;;;21.30;10.85;;;9.90;99.90;;;9.93;100.00;101601.19;5160891;28;20046;-70
2023/04/30 00:24:58;;;;;;;16.88;9.13;;;9.90;99.90;;;9.92;100.00;101596.81;5157674;28;20125;-71
2023/04/30 00:27:30;;;;;;;18.13;9.85;;;9.90;99.90;;;9.92;100.00;101590.72;5157633;28;20035;-71
2023/04/30 00:30:04;;;;;;;18.38;9.73;;;9.90;99.90;;;9.90;100.00;101598.41;5153329;28;20465;-73
2023/04/30 00:32:37;;;;;;;16.75;9.35;;;9.90;99.90;;;9.90;100.00;101595.81;5153806;28;20042;-73
2023/04/30 00:35:11;;;;;;;19.48;9.93;;;9.90;99.90;;;9.88;100.00;101601.78;5164980;28;20129;-72
2023/04/30 00:37:43;;;;;;;20.40;10.18;;;9.80;99.90;;;9.86;100.00;101596.50;5146215;28;20412;-74
2023/04/30 00:40:15;;;;;;;20.65;10.93;;;9.90;99.90;;;9.85;100.00;101610.34;5150773;28;20047;-72
2023/04/30 00:42:48;;;;;;;18.52;9.45;;;9.80;99.90;;;9.80;100.00;101601.41;5169455;28;20054;-74
2023/04/30 00:45:22;;;;;;;16.58;9.88;;;9.80;99.90;;;9.74;100.00;101595.88;5153298;28;20399;-72
2023/04/30 00:47:55;;;;;;;20.15;10.30;;;9.70;99.90;;;9.70;100.00;101596.53;5157779;28;20400;-71
2023/04/30 00:50:27;;;;;;;16.98;9.30;;;9.70;99.90;;;9.65;100.00;101595.38;5165893;28;20499;-72
2023/04/30 00:53:00;;;;;;;17.75;9.90;;;9.70;99.90;;;9.61;100.00;101603.88;5149638;28;20042;-72
2023/04/30 00:55:32;;;;;;;17.83;8.73;;;9.60;99.90;;;9.55;100.00;101599.25;5156190;28;20388;-72
2023/04/30 00:58:05;;;;;;;16.42;9.60;;;9.60;99.90;;;9.50;100.00;101603.31;5165163;28;20125;-72
2023/04/30 01:00:42;;;;;;;16.67;9.23;;;9.50;99.90;;;9.48;100.00;101603.25;5164441;28;20149;-72
2023/04/30 01:03:14;;;;;;;16.88;9.18;;;9.50;99.90;;;9.43;100.00;101603.81;5159603;28;20059;-72
2023/04/30 01:05:46;;;;;;;18.08;9.82;;;9.40;99.90;;;9.38;100.00;101600.97;5162085;28;20130;-75
2023/04/30 01:08:20;;;;;;;18.23;9.40;;;9.40;99.90;;;9.33;100.00;101597.25;5163661;28;20503;-73
2023/04/30 01:10:58;;;;;;;17.70;9.43;;;9.40;99.90;;;9.30;100.00;101593.56;5156897;28;20045;-73
2023/04/30 01:13:37;;;;;;;17.95;9.20;;;9.30;99.90;;;9.26;100.00;101602.94;5149214;28;20035;-72
2023/04/30 01:16:19;;;;;;;18.85;9.77;;;9.30;99.90;;;9.20;100.00;101600.00;5149303;28;20541;-72
2023/04/30 01:18:58;;;;;;;18.50;9.75;;;9.20;99.90;;;9.16;100.00;101598.94;5164898;28;20046;-72
2023/04/30 01:21:33;;;;;;;16.38;8.88;;;9.20;99.90;;;9.14;100.00;101594.47;5155191;28;20047;-70
2023/04/30 01:24:36;;;;;;;18.08;9.07;;;9.20;99.90;;;9.11;100.00;101595.19;5155861;28;20042;-73
2023/04/30 01:27:24;;;;;;;15.52;8.68;;;9.10;99.90;;;9.11;100.00;101609.91;5159678;28;20570;-72
2023/04/30 01:30:02;;;;;;;17.75;9.30;;;9.10;99.90;;;9.05;100.00;101604.38;5151863;28;20050;-73
2023/04/30 01:32:35;;;;;;;17.45;9.30;;;9.10;99.90;;;9.01;100.00;101603.34;5159489;28;20511;-73
2023/04/30 01:35:08;;;;;;;16.92;9.15;;;9.00;99.90;;;8.97;100.00;101607.47;5164029;28;20038;-74
2023/04/30 01:37:52;;;;;;;18.00;9.57;;;9.00;99.90;;;8.91;100.00;101607.13;5148587;28;20063;-73
2023/04/30 01:40:36;;;;;;;16.17;8.50;;;9.00;99.90;;;8.87;100.00;101606.91;5157475;28;20039;-71
2023/04/30 01:43:20;;;;;;;15.38;8.48;;;8.90;99.90;;;8.84;100.00;101609.31;5156176;28;20073;-77
2023/04/30 01:46:09;;;;;;;16.58;8.40;;;8.90;99.90;;;8.80;100.00;101608.28;5148647;28;20113;-72
2023/04/30 01:48:54;;;;;;;16.88;8.75;;;8.80;99.90;;;8.76;100.00;101606.31;5161418;28;20046;-72
2023/04/30 01:51:37;;;;;;;17.60;9.48;;;8.80;99.90;;;8.73;100.00;101616.50;5144543;28;20042;-74
2023/04/30 01:54:18;;;;;;;16.85;9.18;;;8.80;99.90;;;8.70;100.00;101611.16;5143508;28;20042;-71
2023/04/30 01:56:59;;;;;;;15.93;9.27;;;8.70;99.90;;;8.66;100.00;101611.78;5160410;28;20526;-73
2023/04/30 01:59:35;;;;;;;;;;;8.70;99.90;;;8.65;100.00;101612.59;5151244;28;20054;-71
2023/04/30 02:02:09;;;;;;;17.88;8.90;;;8.70;99.90;;;8.64;100.00;101618.63;5155810;28;19922;-72
2023/04/30 02:04:41;;;;;;;17.83;9.35;;;8.70;99.90;;;8.63;100.00;101611.63;5164114;28;20049;-73
2023/04/30 02:07:21;;;;;;;17.70;9.30;;;8.70;99.90;;;8.61;100.00;101610.66;5163192;28;20050;-74
2023/04/30 02:09:53;;;;;;;18.42;8.98;;;8.70;99.90;;;8.59;100.00;101617.47;5162242;28;20137;-72
2023/04/30 02:12:28;;;;;;;16.55;9.35;;;8.60;99.90;;;8.54;100.00;101619.84;5158605;28;20089;-72
2023/04/30 02:15:02;;;;;;;18.40;10.05;;;8.60;99.90;;;8.49;100.00;101625.56;5162644;28;20096;-72
2023/04/30 02:17:37;;;;;;;17.38;9.00;;;8.50;99.90;;;8.46;100.00;101622.78;5162270;28;20102;-71
2023/04/30 02:20:10;;;;;;;18.73;8.85;;;8.50;99.90;;;8.40;100.00;101621.63;5164048;28;20046;-72
2023/04/30 02:22:43;;;;;;;17.48;8.25;;;8.50;99.90;;;8.38;100.00;101623.25;5159258;28;20445;-69
2023/04/30 02:25:15;;;;;;;16.70;8.80;;;8.40;99.90;;;8.35;100.00;101616.97;5163940;28;20125;-74
2023/04/30 02:27:49;;;;;;;17.65;9.27;;;8.40;99.90;;;8.32;100.00;101617.66;5158460;28;20054;-72
2023/04/30 02:30:23;;;;;;;18.10;9.40;;;8.40;99.90;;;8.28;100.00;101614.81;5144077;28;20042;-71
2023/04/30 02:32:56;;;;;;;18.55;9.00;;;8.30;99.90;;;8.26;100.00;101617.31;5162554;28;20053;-71
2023/04/30 02:35:28;;;;;;;19.05;10.02;;;8.30;99.90;;;8.22;100.00;101611.88;5154247;28;20133;-72
2023/04/30 02:38:01;;;;;;;16.13;8.88;;;8.30;99.90;;;8.20;100.00;101611.78;5147344;28;20050;-72
2023/04/30 02:40:33;;;;;;;15.95;9.07;;;8.30;99.90;;;8.20;100.00;101614.38;5147267;28;20039;-70
2023/04/30 02:43:06;;;;;;;15.48;8.57;;;8.30;99.90;;;8.23;100.00;101622.34;5154283;28;20050;-70
2023/04/30 02:45:38;;;;;;;20.35;10.13;;;8.20;99.90;;;8.26;100.00;101622.50;5161590;28;20058;-72
2023/04/30 02:48:12;;;;;;;17.77;8.93;;;8.30;99.90;;;8.29;100.00;101614.91;5151482;28;20105;-72
2023/04/30 02:50:45;;;;;;;19.25;10.27;;;8.30;99.90;;;8.31;100.00;101618.47;5141944;28;20077;-72
2023/04/30 02:53:18;;;;;;;17.92;9.55;;;8.40;99.90;;;8.33;100.00;101609.06;5142405;28;20098;-73
2023/04/30 02:55:50;;;;;;;17.63;9.38;;;8.40;99.90;;;8.32;100.00;101616.78;5153394;28;20060;-71
2023/04/30 02:58:22;;;;;;;21.05;10.73;;;8.40;99.90;;;8.31;100.00;101621.09;5155601;28;20510;-73
2023/04/30 03:00:56;;;;;;;23.35;11.25;;;8.40;99.90;;;8.30;100.00;101619.28;5149495;28;20531;-72
2023/04/30 03:03:30;;;;;;;18.83;10.27;;;8.40;99.90;;;8.27;100.00;101613.91;5142134;28;20566;-70
2023/04/30 03:06:02;;;;;;;19.92;10.25;;;8.30;99.90;;;8.22;100.00;101625.75;5150096;28;20051;-72
2023/04/30 03:08:34;;;;;;;19.60;10.88;;;8.30;99.90;;;8.15;100.00;101624.53;5149998;28;20092;-72
2023/04/30 03:11:06;;;;;;;19.77;10.18;;;8.30;99.90;;;8.08;100.00;101627.53;5158258;28;20062;-73
2023/04/30 03:13:38;;;;;;;20.02;10.18;;;8.20;99.90;;;8.03;100.00;101630.69;5157711;28;20086;-72
2023/04/30 03:16:10;;;;;;;19.42;10.38;;;8.10;99.90;;;7.98;100.00;101632.13;5154381;28;20057;-72
2023/04/30 03:18:45;;;;;;;19.13;9.90;;;8.10;99.90;;;7.94;100.00;101632.75;5154577;28;20038;-70
2023/04/30 03:21:17;;;;;;;19.60;9.73;;;8.00;99.90;;;7.88;100.00;101628.97;5161255;28;20057;-72
2023/04/30 03:23:49;;;;;;;19.08;9.85;;;7.90;99.90;;;7.86;100.00;101624.50;5159672;28;20511;-72
2023/04/30 03:26:22;;;;;;;19.30;9.68;;;8.00;99.90;;;7.84;100.00;101621.84;5141905;28;20589;-72
2023/04/30 03:28:56;;;;;;;19.20;10.35;;;7.90;99.90;;;7.81;100.00;101626.81;5144691;28;20458;-73
2023/04/30 03:31:28;;;;;;;18.30;9.45;;;7.90;99.90;;;7.79;100.00;101623.25;5161100;28;20054;-72
2023/04/30 03:34:02;;;;;;;21.00;10.48;;;7.80;99.90;;;7.80;100.00;101621.56;5160956;28;20619;-72
2023/04/30 03:36:34;;;;;;;22.30;9.98;;;7.90;99.90;;;7.78;100.00;101624.06;5145695;28;20054;-72
2023/04/30 03:39:08;;;;;;;20.00;9.98;;;7.90;99.90;;;7.76;100.00;101625.69;5157794;28;20046;-72
2023/04/30 03:41:40;;;;;;;20.33;10.18;;;7.80;99.90;;;7.76;100.00;101623.09;5148813;28;20054;-74
2023/04/30 03:44:14;;;;;;;19.27;10.30;;;7.80;99.90;;;7.75;100.00;101618.69;5149442;28;20054;-73
2023/04/30 03:46:47;;;;;;;18.10;9.48;;;7.80;99.90;;;7.75;100.00;101629.06;5149375;28;20530;-72
2023/04/30 03:49:20;;;;;;;20.38;10.27;;;7.80;99.90;;;7.72;100.00;101623.69;5147337;28;20038;-73
2023/04/30 03:51:53;;;;;;;18.88;9.35;;;7.80;99.90;;;7.72;100.00;101630.59;5152525;28;20137;-70
2023/04/30 03:54:25;;;;;;;17.83;9.57;;;7.80;99.90;;;7.71;100.00;101634.88;5153357;28;20057;-74
2023/04/30 03:56:57;;;;;;;19.23;10.52;;;7.80;99.90;;;7.69;100.00;101630.41;5150523;28;20050;-72
2023/04/30 03:59:30;;;;;;;16.80;9.40;;;7.80;99.90;;;7.66;100.00;101625.94;5151526;28;20101;-73
2023/04/30 04:02:03;;;;;;;17.58;9.27;;;7.70;99.90;;;7.61;100.00;101627.34;5152818;28;20038;-72
2023/04/30 04:04:36;;;;;;;18.17;9.27;;;7.70;99.90;;;7.58;100.00;101622.00;5145325;28;20141;-72
2023/04/30 04:07:10;;;;;;;17.80;8.75;;;7.70;99.90;;;7.55;100.00;101617.50;5145618;28;20053;-71
2023/04/30 04:09:42;;;;;;;17.85;9.38;;;7.60;99.90;;;7.54;100.00;101620.00;5146979;28;20046;-73
2023/04/30 04:12:14;;;;;;;18.85;9.40;;;7.60;99.90;;;7.51;100.00;101625.03;5153131;28;20039;-72
2023/04/30 04:14:47;;;;;;;17.38;9.13;;;7.60;99.90;;;7.49;100.00;101631.78;5161083;28;20129;-72
2023/04/30 04:17:19;;;;;;;16.75;9.38;;;7.60;99.90;;;7.45;100.00;101625.53;5150843;28;20076;-70
2023/04/30 04:19:52;;;;;;;16.67;9.07;;;7.60;99.90;;;7.42;100.00;101625.34;5156898;28;20053;-69
2023/04/30 04:22:25;;;;;;;17.25;9.05;;;7.50;99.90;;;7.39;100.00;101624.28;5150553;28;20053;-74
2023/04/30 04:24:57;;;;;;;22.90;11.13;;;7.50;99.90;;;7.38;100.00;101625.97;5144946;28;20499;-73
2023/04/30 04:27:29;;;;;;;28.13;12.32;;;7.50;99.90;;;7.37;100.00;101625.84;5200979;23;20131;-85
2023/04/30 04:30:02;;;;;;;26.90;12.60;;;7.50;99.90;;;7.38;100.00;101635.47;5182434;28;20066;-87
2023/04/30 04:32:45;;;;;;;29.92;14.70;;;7.50;99.90;;;7.38;100.00;101638.06;5178572;28;20129;-85
2023/04/30 04:35:19;;;;;;;24.63;12.13;;;7.50;99.90;;;7.37;100.00;101644.00;5174590;28;20039;-83
2023/04/30 04:37:51;;;;;;;29.35;13.48;;;7.50;99.90;;;7.35;100.00;101644.81;5175666;28;20070;-83
2023/04/30 04:40:23;;;;;;;24.75;12.00;;;7.50;99.90;;;7.37;100.00;101633.66;5178603;28;20056;-84
2023/04/30 04:42:56;;;;;;;21.75;10.77;;;7.40;99.90;;;7.35;100.00;101630.97;5183733;28;20047;-82
2023/04/30 04:45:28;;;;;;;21.98;10.52;;;7.50;99.90;;;7.37;100.00;101638.81;5178124;28;20062;-83
2023/04/30 04:48:00;;;;;;;19.45;10.32;;;7.50;99.90;;;7.40;100.00;101639.94;5186629;28;20042;-85
2023/04/30 04:50:35;;;;;;;20.20;10.23;;;7.50;99.90;;;7.43;100.00;101640.09;5181862;28;20061;-83
2023/04/30 04:53:07;;;;;;;16.98;9.23;;;7.60;99.90;;;7.45;100.00;101640.22;5183425;28;20105;-84
2023/04/30 04:55:40;;;;;;;18.75;9.00;;;7.60;99.90;;;7.52;100.00;101644.97;5174293;28;20070;-86
2023/04/30 04:58:12;;;;;;;20.65;9.80;;;7.60;99.90;;;7.55;100.00;101642.53;5176448;28;20042;-83
2023/04/30 05:00:44;;;;;;;18.55;9.23;;;7.70;99.90;;;7.62;100.00;101636.91;5174434;28;20268;-84
2023/04/30 05:03:16;;;;;;;20.42;9.80;;;7.70;99.90;;;7.70;100.00;101637.41;5169443;28;20042;-84
2023/04/30 05:05:50;;;;;;;21.38;10.93;;;7.80;99.90;;;7.74;100.00;101635.06;5194694;28;20042;-83
2023/04/30 05:08:22;;;;;;;18.08;9.73;;;7.90;99.90;;;7.88;100.00;101641.06;5187486;28;20053;-87
2023/04/30 05:10:54;;;;;;;18.33;9.30;;;7.90;99.90;;;8.00;100.00;101646.09;5184982;28;20050;-82
2023/04/30 05:13:26;;;;;;;19.60;10.05;;;8.10;99.90;;;8.20;100.00;101647.25;5175234;28;20055;-82
2023/04/30 05:15:58;;;;;;;20.83;10.82;;;8.20;99.90;;;8.55;100.00;101649.31;5174422;28;20046;-82
2023/04/30 05:18:30;;;;;;;23.38;11.27;;;8.50;99.90;;;9.01;100.00;101639.75;5179251;28;20054;-83
2023/04/30 05:21:04;;;;;;;24.30;12.35;;;8.90;99.90;;;9.53;100.00;101655.53;5172109;28;20042;-84
2023/04/30 05:23:36;;;;;;;22.83;11.73;;;9.30;99.90;;;10.02;100.00;101660.66;5165314;28;20516;-82
2023/04/30 05:26:08;;;;;;;22.45;11.15;;;9.80;99.90;;;10.49;100.00;101670.88;5174911;28;20045;-83
2023/04/30 05:28:41;;;;;;;20.73;10.48;;;10.20;99.90;;;11.00;100.00;101666.38;5175659;28;20420;-84
2023/04/30 05:31:13;;;;;;;20.17;10.65;;;10.70;99.90;;;11.45;100.00;101669.31;5166498;28;20484;-83
2023/04/30 05:33:45;;;;;;;17.80;10.48;;;11.10;99.90;;;11.85;100.00;101674.59;5171633;28;20058;-83
2023/04/30 05:36:18;;;;;;;20.52;11.70;;;11.50;99.90;;;12.21;100.00;101680.53;5177972;28;20118;-83
2023/04/30 05:38:50;;;;;;;19.80;11.00;;;11.80;99.90;;;12.55;100.00;101687.16;5172186;28;20053;-84
2023/04/30 05:41:22;;;;;;;19.67;10.85;;;12.20;99.90;;;12.89;100.00;101693.72;5173203;28;20046;-84
2023/04/30 05:43:54;;;;;;;16.63;9.52;;;12.50;99.90;;;13.21;99.65;101682.81;5173679;28;20398;-83
2023/04/30 05:46:26;;;;;;;14.30;8.27;;;12.80;99.90;;;13.46;98.34;101694.22;5167108;28;20050;-85
2023/04/30 05:48:58;;;;;;;15.98;9.52;;;13.10;99.90;;;13.87;97.35;101693.09;5162449;28;20050;-85
2023/04/30 05:51:32;;;;;;;15.65;8.82;;;13.40;99.90;;;14.19;95.77;101693.34;5184567;28;20062;-84
2023/04/30 05:54:04;;;;;;;15.85;9.50;;;13.70;99.90;;;14.42;94.45;101694.13;5173495;28;20050;-89
2023/04/30 05:56:36;;;;;;;15.15;8.82;;;13.90;99.90;;;14.69;93.15;101695.06;5190419;28;20054;-92
2023/04/30 05:59:08;;;;;;;15.77;8.85;;;14.20;99.90;;;14.87;91.63;101693.03;5183975;28;20089;-92
2023/04/30 06:01:41;;;;;;;14.13;8.23;;;14.40;99.90;;;15.16;90.46;101693.03;5179644;28;20047;-85
2023/04/30 06:04:13;;;;;;;14.18;8.48;;;14.70;99.90;;;15.36;89.29;101691.00;5167582;28;20051;-86
2023/04/30 06:06:46;;;;;;;16.73;8.52;;;14.90;99.90;;;15.52;88.03;101697.56;5165672;28;20058;-87
2023/04/30 06:09:19;;;;;;;13.05;7.93;;;15.00;99.90;;;15.68;87.40;101691.97;5182499;28;20041;-88
2023/04/30 06:11:51;;;;;;;13.75;8.43;;;15.20;99.90;;;15.91;86.94;101685.59;5183597;28;20050;-88
2023/04/30 06:14:24;;;;;;;13.88;8.63;;;15.40;99.90;;;16.15;87.59;101684.47;5175755;28;20058;-87
2023/04/30 06:16:56;;;;;;;16.42;10.35;;;15.60;99.90;;;16.39;86.90;101690.34;5187296;28;20050;-86
2023/04/30 06:19:28;;;;;;;17.23;9.77;;;15.90;99.90;;;16.45;86.02;101687.88;5177730;28;20084;-86
2023/04/30 06:22:02;;;;;;;16.67;9.65;;;16.00;99.90;;;16.57;85.77;101687.31;5170704;28;20046;-87
2023/04/30 06:24:34;;;;;;;17.17;10.57;;;16.00;99.90;;;16.73;85.16;101688.59;5186995;28;20045;-87
2023/04/30 06:27:06;;;;;;;16.15;10.05;;;16.20;99.90;;;16.83;84.68;101673.91;5168595;28;20118;-87
2023/04/30 06:29:38;;;;;;;18.05;10.20;;;16.40;99.80;;;16.97;83.92;101678.63;5171342;28;20043;-85
2023/04/30 06:32:10;;;;;;;18.27;10.77;;;16.50;99.30;;;17.04;83.49;101680.53;5173770;28;20544;-86
2023/04/30 06:34:42;;;;;;;16.30;10.55;;;16.60;99.00;;;17.14;84.01;101686.00;5165929;28;20054;-88
2023/04/30 06:37:15;;;;;;;16.30;10.63;;;16.60;99.10;;;17.28;83.70;101684.56;5177932;28;20044;-86
2023/04/30 06:39:47;;;;;;;15.57;10.05;;;16.80;99.00;;;17.34;83.40;101679.41;5185021;28;20050;-84
2023/04/30 06:42:20;;;;;;;16.77;10.75;;;16.80;98.80;;;17.13;83.46;101686.84;5173958;28;20072;-87
2023/04/30 06:44:52;;;;;;;15.93;10.68;;;16.70;98.50;;;16.99;84.86;101676.91;5169230;28;20108;-84
2023/04/30 06:47:24;;;;;;;18.02;10.50;;;16.60;99.10;;;16.96;84.85;101678.59;5168889;28;20049;-82
2023/04/30 06:49:56;;;;;;;15.13;9.77;;;16.60;99.20;;;17.02;84.76;101687.53;5168360;28;20053;-83
2023/04/30 06:52:30;;;;;;;17.42;10.32;;;16.60;99.30;;;17.20;85.08;101683.50;5168691;28;20042;-83
2023/04/30 06:55:06;;;;;;;15.90;11.55;;;16.70;99.40;;;17.40;84.08;101683.91;5170280;28;20046;-86
2023/04/30 06:57:39;;;;;;;16.45;10.57;;;16.80;99.10;;;17.67;83.58;101683.59;5172688;28;20054;-87
2023/04/30 07:00:14;;;;;;;15.20;10.60;;;17.10;98.90;;;17.84;82.83;101687.50;5170584;28;20069;-86
2023/04/30 07:02:50;;;;;;;15.68;10.02;;;17.20;98.50;;;17.86;82.21;101685.75;5170427;28;20089;-84
2023/04/30 07:05:22;;;;;;;16.63;9.65;;;17.30;98.00;;;18.00;82.22;101686.94;5169697;28;20038;-86
2023/04/30 07:07:56;;;;;;;14.82;9.40;;;17.40;97.90;;;18.20;82.26;101678.50;5161673;28;20049;-86
2023/04/30 07:10:28;;;;;;;12.85;9.02;;;17.60;98.00;;;18.38;80.62;101676.13;5170201;28;20050;-83
2023/04/30 07:13:00;;;;;;;15.65;9.25;;;17.80;97.20;;;18.40;80.39;101674.44;5167373;28;20046;-89
2023/04/30 07:15:32;;;;;;;16.33;10.15;;;17.90;96.80;;;18.52;80.46;101673.72;5162870;28;20046;-87
2023/04/30 07:18:04;;;;;;;14.35;9.43;;;17.90;96.80;;;18.50;81.40;101670.19;5172103;28;20050;-89
2023/04/30 07:20:37;;;;;;;15.23;9.70;;;18.00;97.20;;;18.68;80.50;101676.69;5163728;28;20049;-88
2023/04/30 07:23:10;;;;;;;14.95;9.20;;;18.10;96.80;;;18.71;79.41;101665.25;5167499;28;20035;-88
2023/04/30 07:25:42;;;;;;;13.90;9.32;;;18.10;96.10;;;18.85;79.90;101676.06;5158799;28;20104;-88
2023/04/30 07:28:14;;;;;;;15.98;9.40;;;18.20;96.30;;;19.06;79.42;101671.06;5167297;28;20047;-87
2023/04/30 07:30:46;;;;;;;15.52;9.75;;;18.40;96.10;;;19.28;78.85;101669.59;5176235;28;20085;-89
2023/04/30 07:33:18;;;;;;;12.77;8.65;;;18.60;95.70;;;19.38;78.21;101678.56;5154490;28;20057;-78
2023/04/30 07:35:51;;;;;;;14.40;9.02;;;18.70;95.30;;;19.39;78.37;101675.91;5153604;28;20043;-78
2023/04/30 07:38:24;;;;;;;12.02;7.90;;;18.80;95.20;;;19.38;79.02;101670.63;5144302;28;20054;-79
2023/04/30 07:40:56;;;;;;;13.25;8.00;;;18.80;95.40;;;19.35;78.92;101667.91;5153692;28;20047;-80
2023/04/30 07:43:29;;;;;;;12.63;7.97;;;18.80;95.30;;;19.27;78.82;101669.59;5154784;28;20050;-79
2023/04/30 07:46:02;;;;;;;12.95;7.72;;;18.70;95.20;;;19.19;78.57;101670.38;5148836;28;20049;-78
2023/04/30 07:48:34;;;;;;;12.60;7.47;;;18.60;95.10;;;19.14;78.95;101660.59;5153745;28;20101;-81
2023/04/30 07:51:06;;;;;;;11.57;7.20;;;18.50;95.10;;;19.19;79.84;101662.44;5148668;28;20085;-83
2023/04/30 07:53:40;;;;;;;12.35;7.30;;;18.50;95.60;;;19.21;79.88;101659.81;5157018;28;20054;-84
2023/04/30 07:56:12;;;;;;;13.00;8.13;;;18.60;95.80;;;19.26;79.82;101668.69;5151329;28;20047;-81
2023/04/30 07:58:44;;;;;;;14.18;7.32;;;18.60;95.80;;;19.36;79.64;101664.41;5156476;28;20046;-83
2023/04/30 08:01:16;;;;;;;13.57;7.88;;;18.60;95.90;;;19.54;79.39;101669.91;5155611;28;20130;-84
2023/04/30 08:03:48;;;;;;;11.30;7.38;;;18.70;95.90;;;19.70;78.87;101671.94;5159913;28;20046;-83
2023/04/30 08:06:20;;;;;;;10.60;6.72;;;18.70;95.80;;;19.99;78.36;101661.63;5148436;28;20031;-84
2023/04/30 08:08:54;;;;;;;11.32;6.85;;;18.90;95.70;;;20.41;77.49;101662.00;5148944;28;20056;-81
2023/04/30 08:11:26;;;;;;;9.93;6.15;;;19.10;95.60;;;20.80;76.07;101669.38;5163563;28;20086;-83
2023/04/30 08:13:58;;;;;;;9.52;6.25;;;19.40;94.90;;;21.21;74.32;101667.00;5160331;28;20149;-83
2023/04/30 08:16:30;;;;;;;9.57;6.03;;;19.60;94.20;;;21.64;73.22;101664.53;5148485;28;20035;-86
2023/04/30 08:19:03;;;;;;;9.40;6.05;;;19.80;93.80;;;22.09;70.73;101673.50;5171435;28;20051;-87
2023/04/30 08:21:37;;;;;;;7.80;5.18;;;20.00;92.50;;;22.61;69.42;101668.19;5177643;28;20057;-88
2023/04/30 08:24:10;;;;;;;8.20;5.10;;;20.20;92.00;;;23.21;68.16;101658.34;5165899;28;20050;-87
2023/04/30 08:26:42;;;;;;;8.55;4.35;;;20.50;91.50;;;23.83;65.97;101659.84;5170393;28;20088;-85
2023/04/30 08:29:14;;;;;;;5.93;4.00;;;20.70;90.60;;;24.68;64.00;101654.75;5171828;28;20053;-87
2023/04/30 08:31:46;;;;;;;5.38;3.72;;;21.10;90.00;;;25.80;61.51;101665.91;5167790;28;20416;-82
2023/04/30 08:34:18;;;;;;;5.53;3.42;;;21.70;87.60;;;27.06;58.96;101659.38;5162727;28;20440;-85
2023/04/30 08:36:51;;;;;;;4.93;3.50;;;22.60;84.80;;;28.25;55.23;101661.19;5156260;28;20125;-82
2023/04/30 08:39:25;;;;;;;4.43;3.30;;;23.60;79.70;;;29.07;51.90;101663.50;5165129;28;20058;-83
2023/04/30 08:41:58;;;;;;;7.35;4.38;;;24.50;72.60;;;29.62;50.02;101657.44;5154974;28;20050;-88
2023/04/30 08:44:32;;;;;;;4.55;3.33;;;25.20;68.70;;;30.39;49.69;101655.84;5160818;28;20046;-87
2023/04/30 08:47:04;;;;;;;6.57;4.82;;;26.00;67.60;;;31.07;48.70;101651.66;5154265;28;20062;-89
2023/04/30 08:49:36;;;;;;;5.50;4.03;;;26.70;65.70;;;31.54;48.01;101646.28;5176131;28;20047;-89
2023/04/30 08:52:09;;;;;;;5.90;4.20;;;27.30;63.90;;;31.67;47.29;101646.69;5160630;28;20065;-89
2023/04/30 08:54:44;;;;;;;5.13;3.55;;;27.50;62.30;;;31.68;47.19;101645.75;5159757;28;20397;-89
2023/04/30 08:57:16;;;;;;;4.32;2.80;;;27.60;61.70;;;31.76;46.42;101638.25;5170241;28;20034;-91
2023/04/30 08:59:48;;;;;;;3.30;2.22;;;27.70;60.50;;;31.77;45.20;101645.38;5168944;28;20057;-89
2023/04/30 09:02:20;;;;;;;4.40;2.40;;;27.80;58.70;;;31.34;45.16;101642.56;5164606;28;20531;-87
2023/04/30 09:04:53;;;;;;;4.90;2.20;;;27.60;58.20;;;31.40;43.88;101638.75;5168168;28;20054;-82
2023/04/30 09:07:27;;;;;;;6.20;2.58;;;27.60;56.60;;;31.26;43.24;101635.72;5171899;28;20051;-87
2023/04/30 09:10:02;;;;;;;4.47;1.77;;;27.60;55.60;;;30.89;42.14;101637.06;5169841;28;20073;-84
2023/04/30 09:12:35;;;;;;;3.08;1.70;;;27.60;54.60;;;30.37;43.51;101636.19;5177783;28;20056;-85
2023/04/30 09:15:09;;;;;;;6.88;1.83;;;27.30;54.80;;;29.85;44.12;101637.88;5200446;28;20065;-85
2023/04/30 09:17:41;;;;;;;3.15;1.98;;;27.20;55.30;;;29.22;44.35;101636.25;5159629;28;20053;-85
2023/04/30 09:20:14;;;;;;;6.88;1.80;;;26.90;54.80;;;28.47;45.61;101624.88;5170934;28;20046;-84
2023/04/30 09:22:46;;;;;;;3.78;1.65;;;26.50;55.30;;;27.77;46.33;101626.59;5173328;28;20053;-85
2023/04/30 09:25:38;;;;;;;4.30;2.17;;;26.20;55.60;;;26.62;47.47;101618.25;5186745;28;20053;-83
2023/04/30 09:28:11;;;;;;;3.03;1.80;;;25.60;55.50;;;25.60;49.67;101615.41;5161543;28;20042;-86
2023/04/30 09:30:43;;;;;;;2.47;1.45;;;24.80;57.10;;;24.85;50.34;101613.69;5164511;28;20043;-84
2023/04/30 09:33:15;;;;;;;4.60;1.48;;;24.20;57.50;;;24.44;51.33;101611.44;5167013;28;20054;-84
2023/04/30 09:35:48;;;;;;;1.55;1.30;;;23.70;58.50;;;24.05;50.60;101600.22;5160189;28;20044;-85
2023/04/30 09:38:31;;;;;;;2.33;1.27;;;23.40;57.80;;;23.81;51.65;101601.31;5164317;28;20045;-85
2023/04/30 09:41:05;;;;;;;1.38;1.10;;;23.10;58.70;;;23.74;51.79;101596.03;5167991;28;20043;-83
2023/04/30 09:43:45;;;;;;;2.00;1.17;;;23.00;59.20;;;23.54;49.91;101586.38;5159354;28;20147;-85
2023/04/30 09:46:20;;;;;;;1.52;1.13;;;22.90;57.40;;;23.36;49.99;101589.13;5154425;28;20058;-85
2023/04/30 09:48:58;;;;;;;1.15;0.93;;;22.70;57.30;;;23.37;50.52;101595.34;5163301;28;20628;-84
2023/04/30 09:51:31;;;;;;;1.95;1.10;;;22.70;57.90;;;23.40;51.32;101585.53;5150973;28;20049;-84
2023/04/30 09:54:07;;;;;;;1.42;1.00;;;22.70;58.50;;;23.46;51.66;101580.19;5149832;28;20052;-85
2023/04/30 09:56:41;;;;;;;1.15;0.90;;;22.70;59.10;;;23.51;52.38;101578.38;5155573;28;20485;-84
2023/04/30 09:59:14;;;;;;;2.05;1.10;;;22.70;59.40;;;23.46;52.69;101580.19;5181357;28;20133;-85
2023/04/30 10:01:46;;;;;;;1.05;0.88;;;22.70;60.10;;;23.38;52.77;101573.16;5173495;28;20061;-84
2023/04/30 10:04:20;;;;;;;2.08;1.10;;;22.60;60.00;;;23.48;52.59;101570.44;5166863;28;20043;-84
2023/04/30 10:06:55;;;;;;;1.08;0.82;;;22.70;60.10;;;23.54;52.55;101566.84;5165051;28;20073;-83
2023/04/30 10:09:36;;;;;;;0.95;0.70;;;22.80;59.90;;;23.67;53.30;101567.66;5163265;28;20050;-84
2023/04/30 10:12:15;;;;;;;0.73;0.70;;;22.80;60.50;;;23.67;52.11;101570.31;5168725;28;20085;-86
2023/04/30 10:14:53;;;;;;;0.80;0.70;;;22.80;59.50;;;23.59;51.91;101558.81;5168984;28;20054;-85
2023/04/30 10:17:30;;;;;;;0.73;0.73;;;22.80;59.40;;;23.53;50.18;101571.28;5159829;28;20588;-82
2023/04/30 10:20:07;;;;;;;0.70;0.70;;;22.80;57.80;;;23.37;48.79;101550.09;5150312;28;20543;-84
2023/04/30 10:22:42;;;;;;;1.85;0.73;;;22.70;56.60;;;23.33;48.00;101545.69;5162234;28;20042;-86
2023/04/30 10:25:15;;;;;;;1.75;0.80;;;22.60;55.70;;;22.99;48.49;101552.06;5168285;28;20054;-87
2023/04/30 10:27:49;;;;;;;1.20;0.80;;;22.40;56.30;;;22.92;49.68;101552.97;5175045;23;20051;-58
2023/04/30 10:30:22;;;;;;;1.52;0.68;;;22.30;57.00;;;22.97;50.21;101548.53;5151091;28;20047;-59
2023/04/30 10:33:13;;;;;;;0.70;0.63;;;22.30;57.40;;;23.17;51.27;101550.22;5151408;28;20038;-60
2023/04/30 10:35:52;;;;;;;0.68;0.68;;;22.40;58.70;;;23.31;50.44;101540.38;5143358;28;20046;-59
2023/04/30 10:38:28;;;;;;;0.93;0.63;;;22.50;58.00;;;23.46;50.61;101536.72;5162314;28;20134;-59